createdAt,value
2018-07-22T00:02:14.074Z,51.30
2018-07-22T00:07:11.993Z,51.60
2018-07-22T00:09:41.080Z,52.30
2018-07-22T00:12:10.486Z,52.20
2018-07-22T00:14:39.574Z,52.30
2018-07-22T00:17:08.486Z,52.50
2018-07-22T00:19:37.701Z,52.30
2018-07-22T00:22:06.493Z,52.40
2018-07-22T00:24:35.608Z,52.80
2018-07-22T00:27:04.402Z,52.60
2018-07-22T00:29:33.506Z,51.90
2018-07-22T00:32:02.297Z,52.30
2018-07-22T00:34:31.542Z,52.40
2018-07-22T00:37:00.341Z,52.70
2018-07-22T00:39:29.444Z,52.80
2018-07-22T00:41:58.931Z,52.80
2018-07-22T00:44:27.750Z,52.70
2018-07-22T00:46:56.833Z,52.90
2018-07-22T00:49:25.656Z,52.90
2018-07-22T00:51:54.447Z,53.00
2018-07-22T00:54:23.882Z,53.50
2018-07-22T00:56:52.727Z,53.70
2018-07-22T00:59:21.881Z,53.90
2018-07-22T01:01:51.186Z,54.30
2018-07-22T01:04:20.281Z,55.00
2018-07-22T01:06:49.204Z,55.00
2018-07-22T01:09:18.007Z,55.20
2018-07-22T01:11:47.109Z,55.20
2018-07-22T01:14:15.921Z,55.60
2018-07-22T01:16:44.709Z,56.00
2018-07-22T01:19:13.830Z,56.40
2018-07-22T01:21:42.643Z,56.60
2018-07-22T01:24:11.441Z,56.90
2018-07-22T01:26:40.383Z,57.10
2018-07-22T01:29:09.219Z,57.20
2018-07-22T01:31:38.327Z,57.20
2018-07-22T01:34:07.131Z,57.20
2018-07-22T01:36:35.959Z,57.40
2018-07-22T01:39:07.267Z,58.00
2018-07-22T01:41:36.397Z,58.00
2018-07-22T01:44:05.213Z,58.20
2018-07-22T01:46:34.678Z,58.40
2018-07-22T01:49:03.498Z,58.60
2018-07-22T01:51:32.313Z,58.80
2018-07-22T01:54:01.504Z,58.90
2018-07-22T01:56:30.956Z,58.90
2018-07-22T01:59:00.049Z,59.20
2018-07-22T02:01:29.240Z,59.30
2018-07-22T02:03:58.008Z,59.40
2018-07-22T02:06:26.829Z,59.60
2018-07-22T02:08:55.830Z,60.00
2018-07-22T02:11:24.670Z,60.40
2018-07-22T02:13:53.856Z,60.90
2018-07-22T02:16:22.644Z,60.00
2018-07-22T02:18:51.430Z,60.10
2018-07-22T02:21:20.614Z,60.80
2018-07-22T02:23:49.736Z,60.50
2018-07-22T02:26:18.780Z,60.50
2018-07-22T02:28:47.566Z,60.50
2018-07-22T02:31:16.373Z,60.50
2018-07-22T02:33:45.173Z,60.50
2018-07-22T02:36:14.286Z,60.40
2018-07-22T02:41:11.938Z,60.50
2018-07-22T02:43:41.014Z,60.50
2018-07-22T02:46:09.818Z,60.80
2018-07-22T02:48:38.801Z,60.90
2018-07-22T02:51:07.613Z,60.70
2018-07-22T02:53:36.434Z,61.00
2018-07-22T02:56:05.276Z,61.20
2018-07-22T02:58:34.390Z,61.00
2018-07-22T03:01:03.191Z,61.00
2018-07-22T03:03:32.282Z,61.10
2018-07-22T03:06:01.137Z,60.80
2018-07-22T03:08:29.942Z,60.90
2018-07-22T03:10:58.728Z,61.20
2018-07-22T03:13:27.519Z,61.20
2018-07-22T03:15:56.610Z,61.40
2018-07-22T03:18:26.015Z,62.00
2018-07-22T03:20:55.105Z,62.00
2018-07-22T03:23:24.249Z,62.00
2018-07-22T03:25:53.385Z,62.10
2018-07-22T03:28:22.485Z,62.10
2018-07-22T03:30:51.283Z,62.30
2018-07-22T03:33:20.403Z,62.30
2018-07-22T03:35:49.477Z,62.30
2018-07-22T03:38:18.695Z,62.40
2018-07-22T03:40:47.859Z,62.40
2018-07-22T03:43:16.969Z,62.50
2018-07-22T03:45:46.062Z,62.40
2018-07-22T03:48:15.192Z,62.30
2018-07-22T03:50:44.326Z,62.40
2018-07-22T03:53:13.138Z,62.30
2018-07-22T03:55:42.297Z,62.20
2018-07-22T03:58:11.084Z,62.10
2018-07-22T04:00:39.880Z,62.30
2018-07-22T04:03:08.800Z,62.30
2018-07-22T04:05:37.595Z,61.70
2018-07-22T04:08:06.468Z,61.10
2018-07-22T04:10:35.600Z,61.20
2018-07-22T04:13:04.393Z,61.70
2018-07-22T04:15:33.544Z,61.00
2018-07-22T04:18:02.520Z,60.80
2018-07-22T04:20:31.310Z,61.00
2018-07-22T04:23:00.203Z,61.20
2018-07-22T04:25:29.015Z,61.30
2018-07-22T04:27:58.136Z,61.30
2018-07-22T04:30:27.246Z,61.10
2018-07-22T04:32:56.027Z,61.00
2018-07-22T04:35:25.724Z,61.00
2018-07-22T04:37:54.516Z,61.10
2018-07-22T04:40:23.611Z,60.20
2018-07-22T04:42:52.819Z,60.10
2018-07-22T04:45:21.639Z,60.20
2018-07-22T04:47:50.502Z,60.20
2018-07-22T04:50:19.286Z,60.00
2018-07-22T04:52:48.083Z,60.00
2018-07-22T04:55:16.886Z,59.60
2018-07-22T04:57:45.994Z,59.50
2018-07-22T05:00:15.208Z,59.20
2018-07-22T05:02:44.313Z,58.80
2018-07-22T05:05:13.174Z,59.10
2018-07-22T05:07:41.961Z,58.80
2018-07-22T05:10:10.773Z,58.60
2018-07-22T05:12:39.557Z,58.50
2018-07-22T05:15:08.369Z,58.30
2018-07-22T05:17:37.187Z,58.50
2018-07-22T05:20:06.025Z,58.60
2018-07-22T05:22:34.820Z,58.70
2018-07-22T05:25:03.617Z,58.30
2018-07-22T05:27:32.413Z,58.30
2018-07-22T05:30:01.254Z,58.40
2018-07-22T05:32:30.077Z,58.50
2018-07-22T05:34:58.881Z,58.50
2018-07-22T05:37:27.695Z,58.40
2018-07-22T05:39:56.950Z,58.10
2018-07-22T05:42:25.777Z,58.20
2018-07-22T05:44:55.242Z,58.10
2018-07-22T05:47:24.160Z,57.90
2018-07-22T05:49:52.976Z,57.70
2018-07-22T05:52:21.809Z,57.70
2018-07-22T05:54:50.640Z,57.80
2018-07-22T05:57:19.554Z,57.90
2018-07-22T05:59:48.689Z,57.80
2018-07-22T06:02:17.746Z,57.30
2018-07-22T06:04:46.721Z,57.20
2018-07-22T06:07:16.077Z,57.10
2018-07-22T06:09:44.893Z,57.40
2018-07-22T06:12:14.008Z,57.40
2018-07-22T06:14:42.795Z,57.10
2018-07-22T06:17:11.633Z,57.20
2018-07-22T06:19:40.804Z,56.20
2018-07-22T06:22:09.915Z,56.30
2018-07-22T06:24:39.036Z,54.70
2018-07-22T06:27:08.025Z,54.70
2018-07-22T06:29:37.368Z,56.00
2018-07-22T06:32:06.593Z,56.20
2018-07-22T06:34:35.689Z,56.00
2018-07-22T06:37:05.061Z,55.00
2018-07-22T06:39:33.957Z,55.80
2018-07-22T06:42:02.813Z,55.90
2018-07-22T06:44:31.809Z,55.70
2018-07-22T06:47:00.926Z,56.00
2018-07-22T06:49:30.004Z,55.70
2018-07-22T06:51:59.080Z,56.30
2018-07-22T06:54:28.281Z,56.10
2018-07-22T06:56:57.074Z,56.50
2018-07-22T06:59:25.872Z,57.40
2018-07-22T07:01:55.065Z,57.50
2018-07-22T07:04:23.881Z,57.80
2018-07-22T07:06:52.691Z,57.20
2018-07-22T07:09:21.819Z,57.50
2018-07-22T07:11:50.923Z,56.90
2018-07-22T07:14:20.073Z,56.90
2018-07-22T07:16:48.877Z,56.70
2018-07-22T07:19:18.042Z,55.60
2018-07-22T07:21:46.929Z,56.10
2018-07-22T07:24:16.039Z,55.50
2018-07-22T07:26:44.851Z,55.30
2018-07-22T07:29:13.977Z,54.60
2018-07-22T07:31:42.760Z,54.30
2018-07-22T07:34:12.018Z,53.90
2018-07-22T07:36:41.196Z,53.40
2018-07-22T07:39:11.674Z,54.00
2018-07-22T07:41:40.684Z,53.80
2018-07-22T07:44:09.965Z,52.90
2018-07-22T07:46:38.793Z,51.70
2018-07-22T07:49:07.889Z,52.40
2018-07-22T07:51:36.982Z,52.70
2018-07-22T07:54:06.002Z,53.20
2018-07-22T07:56:34.782Z,52.60
2018-07-22T07:59:03.917Z,52.30
2018-07-22T08:01:33.016Z,51.70
2018-07-22T08:04:02.139Z,51.60
2018-07-22T08:06:31.244Z,50.50
2018-07-22T08:09:00.456Z,49.90
2018-07-22T08:11:29.892Z,50.20
2018-07-22T08:13:59.342Z,50.20
2018-07-22T08:16:28.434Z,50.10
2018-07-22T08:18:57.950Z,48.20
2018-07-22T08:21:27.281Z,45.10
2018-07-22T08:23:56.204Z,44.00
2018-07-22T08:26:25.090Z,43.70
2018-07-22T08:29:19.490Z,43.50
2018-07-22T08:31:48.324Z,40.50
2018-07-22T08:34:17.468Z,38.70
2018-07-22T08:36:46.877Z,38.30
2018-07-22T08:39:16.374Z,39.30
2018-07-22T08:41:45.626Z,39.50
2018-07-22T08:44:14.740Z,39.30
2018-07-22T08:46:43.764Z,39.40
2018-07-22T08:49:12.571Z,39.70
2018-07-22T08:51:41.614Z,39.60
2018-07-22T08:54:10.589Z,40.10
2018-07-22T08:56:40.117Z,40.60
2018-07-22T08:59:09.211Z,40.70
2018-07-22T09:01:38.723Z,40.10
2018-07-22T09:04:08.145Z,40.30
2018-07-22T09:06:37.303Z,40.10
2018-07-22T09:09:08.653Z,40.40
2018-07-22T09:11:37.523Z,40.40
2018-07-22T09:14:06.750Z,40.00
2018-07-22T09:16:35.920Z,40.90
2018-07-22T09:19:05.143Z,40.30
2018-07-22T09:21:34.078Z,41.30
2018-07-22T09:24:02.914Z,41.20
2018-07-22T09:26:31.710Z,41.10
2018-07-22T09:29:00.542Z,41.00
2018-07-22T09:31:29.383Z,41.00
2018-07-22T09:33:58.541Z,40.70
2018-07-22T09:36:27.722Z,40.30
2018-07-22T09:38:56.558Z,40.40
2018-07-22T09:41:25.428Z,38.70
2018-07-22T09:43:54.565Z,36.70
2018-07-22T09:46:23.700Z,37.90
2018-07-22T09:48:52.544Z,35.60
2018-07-22T09:51:21.341Z,34.40
2018-07-22T09:56:18.984Z,34.50
2018-07-22T09:58:48.109Z,34.00
2018-07-22T10:01:17.269Z,33.40
2018-07-22T10:03:46.381Z,32.50
2018-07-22T10:06:15.277Z,33.60
2018-07-22T10:08:44.412Z,32.40
2018-07-22T10:11:13.298Z,32.10
2018-07-22T10:13:42.343Z,32.00
2018-07-22T10:16:11.210Z,32.40
2018-07-22T10:18:40.044Z,33.50
2018-07-22T10:21:08.852Z,34.30
2018-07-22T10:23:37.682Z,35.70
2018-07-22T10:26:06.536Z,34.90
2018-07-22T10:28:35.383Z,37.30
2018-07-22T10:31:04.166Z,37.10
2018-07-22T10:33:33.626Z,34.80
2018-07-22T10:36:02.427Z,34.50
2018-07-22T10:38:31.228Z,34.00
2018-07-22T10:41:00.311Z,33.00
2018-07-22T10:43:29.129Z,33.00
2018-07-22T10:45:58.652Z,33.00
2018-07-22T10:48:28.131Z,32.60
2018-07-22T10:50:57.349Z,32.50
2018-07-22T10:53:26.241Z,32.20
2018-07-22T10:55:55.318Z,32.60
2018-07-22T10:58:24.589Z,32.30
2018-07-22T11:00:53.688Z,32.00
2018-07-22T11:03:22.904Z,31.40
2018-07-22T11:05:51.677Z,31.20
2018-07-22T11:08:20.679Z,31.60
2018-07-22T11:10:49.736Z,30.80
2018-07-22T11:13:18.550Z,30.80
2018-07-22T11:18:16.629Z,31.10
2018-07-22T11:20:45.427Z,31.50
2018-07-22T11:23:14.248Z,32.30
2018-07-22T11:25:43.053Z,33.10
2018-07-22T11:28:12.225Z,33.10
2018-07-22T11:30:41.117Z,33.90
2018-07-22T11:33:10.319Z,33.90
2018-07-22T11:35:39.148Z,34.10
2018-07-22T11:38:08.443Z,33.70
2018-07-22T11:40:37.624Z,33.30
2018-07-22T11:43:06.821Z,33.50
2018-07-22T11:45:35.960Z,32.80
2018-07-22T11:48:05.061Z,32.70
2018-07-22T11:50:33.945Z,32.90
2018-07-22T11:53:03.415Z,34.20
2018-07-22T11:55:32.488Z,34.60
2018-07-22T11:58:02.007Z,34.70
2018-07-22T12:00:31.515Z,34.90
2018-07-22T12:03:00.790Z,34.80
2018-07-22T12:05:30.211Z,34.20
2018-07-22T12:07:59.204Z,34.80
2018-07-22T12:10:29.013Z,35.30
2018-07-22T12:12:57.884Z,33.90
2018-07-22T12:15:26.694Z,34.30
2018-07-22T12:17:55.585Z,34.50
2018-07-22T12:20:24.452Z,34.70
2018-07-22T12:22:53.273Z,35.20
2018-07-22T12:25:22.077Z,34.50
2018-07-22T12:27:51.193Z,34.90
2018-07-22T12:30:20.028Z,35.20
2018-07-22T12:32:48.816Z,35.20
2018-07-22T12:35:17.729Z,35.50
2018-07-22T12:37:46.557Z,34.60
2018-07-22T12:40:15.366Z,34.60
2018-07-22T12:42:44.142Z,35.20
2018-07-22T12:45:13.132Z,34.90
2018-07-22T12:47:41.953Z,35.10
2018-07-22T12:50:10.752Z,35.60
2018-07-22T12:52:39.546Z,35.90
2018-07-22T12:55:08.450Z,36.40
2018-07-22T12:57:37.633Z,35.70
2018-07-22T13:00:07.252Z,36.50
2018-07-22T13:02:36.082Z,35.80
2018-07-22T13:05:05.293Z,35.70
2018-07-22T13:07:34.098Z,35.70
2018-07-22T13:10:02.978Z,35.80
2018-07-22T13:12:32.176Z,36.40
2018-07-22T13:15:00.962Z,35.60
2018-07-22T13:17:29.848Z,35.60
2018-07-22T13:19:59.163Z,36.40
2018-07-22T13:22:28.002Z,36.20
2018-07-22T13:24:57.128Z,36.60
2018-07-22T13:27:26.228Z,37.50
2018-07-22T13:29:55.436Z,36.90
2018-07-22T13:32:24.995Z,37.30
2018-07-22T13:34:53.911Z,37.50
2018-07-22T13:37:22.785Z,37.30
2018-07-22T13:39:51.653Z,37.10
2018-07-22T13:42:20.461Z,36.60
2018-07-22T13:44:49.299Z,37.10
2018-07-22T13:47:18.113Z,36.90
2018-07-22T13:49:47.236Z,37.30
2018-07-22T13:52:16.095Z,36.70
2018-07-22T13:54:45.331Z,36.10
2018-07-22T13:57:14.297Z,36.70
2018-07-22T13:59:43.453Z,36.90
2018-07-22T14:02:12.501Z,36.90
2018-07-22T14:04:41.778Z,37.10
2018-07-22T14:07:10.654Z,37.00
2018-07-22T14:09:39.837Z,37.50
2018-07-22T14:12:08.942Z,37.80
2018-07-22T14:14:37.960Z,37.40
2018-07-22T14:17:07.148Z,37.60
2018-07-22T14:19:36.293Z,38.10
2018-07-22T14:22:05.171Z,37.90
2018-07-22T14:24:34.296Z,37.60
2018-07-22T14:27:03.108Z,38.10
2018-07-22T14:29:32.278Z,37.80
2018-07-22T14:32:01.526Z,38.10
2018-07-22T14:34:30.993Z,38.30
2018-07-22T14:36:59.873Z,37.60
2018-07-22T14:39:28.673Z,37.80
2018-07-22T14:41:57.474Z,37.60
2018-07-22T14:44:26.940Z,38.00
2018-07-22T14:46:56.093Z,37.90
2018-07-22T14:49:24.889Z,37.40
2018-07-22T14:52:00.358Z,37.60
2018-07-22T14:54:29.510Z,37.20
2018-07-22T14:56:58.769Z,37.60
2018-07-22T14:59:27.806Z,38.00
2018-07-22T15:01:56.592Z,37.60
2018-07-22T15:04:25.987Z,37.30
2018-07-22T15:06:55.087Z,37.50
2018-07-22T15:09:24.221Z,37.50
2018-07-22T15:11:53.061Z,37.10
2018-07-22T15:14:22.285Z,36.80
2018-07-22T15:16:51.675Z,37.40
2018-07-22T15:19:20.457Z,37.50
2018-07-22T15:21:49.746Z,37.90
2018-07-22T15:24:19.236Z,37.50
2018-07-22T15:26:48.368Z,37.20
2018-07-22T15:29:17.627Z,37.20
2018-07-22T15:31:47.470Z,37.10
2018-07-22T15:34:16.571Z,37.60
2018-07-22T15:36:45.723Z,36.80
2018-07-22T15:39:14.859Z,37.30
2018-07-22T15:41:44.270Z,37.60
2018-07-22T15:44:13.075Z,37.50
2018-07-22T15:46:42.134Z,37.40
2018-07-22T15:49:11.252Z,37.50
2018-07-22T15:51:40.751Z,37.00
2018-07-22T15:54:09.864Z,38.00
2018-07-22T15:56:39.146Z,37.80
2018-07-22T15:59:08.294Z,38.00
2018-07-22T16:01:37.585Z,37.60
2018-07-22T16:04:06.898Z,38.50
2018-07-22T16:06:35.753Z,37.90
2018-07-22T16:09:07.446Z,38.40
2018-07-22T16:11:36.229Z,38.70
2018-07-22T16:14:05.351Z,38.60
2018-07-22T16:16:34.218Z,38.90
2018-07-22T16:19:03.414Z,39.30
2018-07-22T16:21:32.614Z,38.80
2018-07-22T16:24:01.410Z,38.60
2018-07-22T16:26:30.332Z,38.70
2018-07-22T16:28:59.124Z,39.00
2018-07-22T16:31:28.553Z,39.20
2018-07-22T16:33:57.667Z,39.10
2018-07-22T16:36:26.505Z,39.10
2018-07-22T16:38:56.014Z,39.50
2018-07-22T16:41:24.835Z,40.20
2018-07-22T16:43:53.683Z,40.20
2018-07-22T16:46:23.097Z,40.50
2018-07-22T16:48:52.446Z,40.50
2018-07-22T16:51:21.494Z,40.70
2018-07-22T16:53:50.549Z,40.90
2018-07-22T16:56:19.330Z,40.50
2018-07-22T16:58:48.444Z,40.40
2018-07-22T17:01:17.316Z,40.20
2018-07-22T17:03:46.750Z,40.40
2018-07-22T17:06:15.931Z,40.60
2018-07-22T17:08:45.091Z,41.00
2018-07-22T17:11:14.299Z,40.90
2018-07-22T17:13:43.417Z,40.70
2018-07-22T17:16:12.573Z,41.00
2018-07-22T17:18:41.410Z,41.00
2018-07-22T17:21:10.299Z,41.00
2018-07-22T17:23:39.424Z,41.20
2018-07-22T17:26:08.220Z,41.70
2018-07-22T17:28:37.386Z,41.00
2018-07-22T17:31:06.729Z,40.80
2018-07-22T17:33:35.834Z,41.10
2018-07-22T17:36:04.980Z,41.20
2018-07-22T17:38:33.844Z,41.70
2018-07-22T17:41:02.979Z,41.40
2018-07-22T17:43:32.190Z,41.40
2018-07-22T17:46:01.025Z,41.90
2018-07-22T17:48:29.843Z,42.00
2018-07-22T17:50:59.372Z,42.10
2018-07-22T17:53:28.442Z,42.10
2018-07-22T17:55:57.549Z,42.20
2018-07-22T17:58:26.943Z,41.90
2018-07-22T18:00:56.169Z,42.40
2018-07-22T18:03:28.506Z,42.00
2018-07-22T18:05:57.736Z,42.60
2018-07-22T18:08:27.015Z,41.60
2018-07-22T18:10:56.721Z,41.40
2018-07-22T18:13:25.805Z,42.50
2018-07-22T18:15:54.679Z,44.90
2018-07-22T18:18:23.771Z,45.30
2018-07-22T18:20:52.766Z,45.80
2018-07-22T18:23:21.931Z,45.90
2018-07-22T18:25:50.809Z,45.70
2018-07-22T18:28:19.677Z,46.70
2018-07-22T18:30:48.891Z,47.10
2018-07-22T18:33:17.699Z,48.20
2018-07-22T18:35:47.163Z,49.00
2018-07-22T18:38:16.457Z,48.70
2018-07-22T18:40:45.375Z,50.30
2018-07-22T18:43:14.247Z,51.20
2018-07-22T18:45:43.667Z,50.80
2018-07-22T18:48:13.208Z,52.20
2018-07-22T18:50:42.109Z,51.80
2018-07-22T18:53:10.930Z,53.30
2018-07-22T18:55:40.258Z,52.80
2018-07-22T18:58:09.139Z,52.60
2018-07-22T19:00:38.700Z,51.20
2018-07-22T19:03:08.362Z,51.50
2018-07-22T19:05:37.309Z,53.20
2018-07-22T19:08:06.126Z,52.60
2018-07-22T19:10:35.538Z,52.70
2018-07-22T19:13:04.763Z,53.30
2018-07-22T19:15:33.930Z,53.60
2018-07-22T19:18:03.141Z,54.10
2018-07-22T19:20:32.277Z,54.30
2018-07-22T19:23:01.368Z,54.50
2018-07-22T19:25:30.215Z,54.90
2018-07-22T19:27:59.024Z,55.10
2018-07-22T19:32:56.673Z,55.60
2018-07-22T19:35:25.818Z,55.80
2018-07-22T19:37:54.913Z,55.90
2018-07-22T19:40:23.818Z,56.10
2018-07-22T19:42:52.716Z,56.20
2018-07-22T19:45:21.615Z,56.40
2018-07-22T19:47:50.448Z,57.50
2018-07-22T19:50:19.284Z,57.30
2018-07-22T19:52:48.129Z,57.60
2018-07-22T19:55:17.001Z,57.30
2018-07-22T19:57:46.370Z,57.70
2018-07-22T20:00:15.295Z,58.00
2018-07-22T20:02:44.254Z,57.80
2018-07-22T20:05:13.086Z,58.20
2018-07-22T20:07:41.964Z,57.80
2018-07-22T20:10:10.767Z,57.90
2018-07-22T20:12:39.635Z,58.10
2018-07-22T20:15:08.377Z,58.00
2018-07-22T20:17:37.533Z,58.90
2018-07-22T20:20:08.594Z,58.70
2018-07-22T20:22:37.439Z,56.80
2018-07-22T20:25:06.457Z,56.10
2018-07-22T20:27:35.285Z,56.00
2018-07-22T20:30:04.688Z,56.50
2018-07-22T20:32:33.511Z,55.80
2018-07-22T20:35:02.380Z,55.80
2018-07-22T20:37:31.702Z,55.90
2018-07-22T20:40:00.524Z,56.20
2018-07-22T20:42:29.706Z,56.50
2018-07-22T20:44:58.980Z,56.50
2018-07-22T20:47:27.820Z,56.80
2018-07-22T20:49:56.627Z,57.00
2018-07-22T20:52:25.801Z,57.20
2018-07-22T20:54:55.298Z,57.30
2018-07-22T20:57:24.778Z,57.40
2018-07-22T20:59:53.657Z,57.50
2018-07-22T21:02:22.467Z,57.60
2018-07-22T21:04:51.851Z,57.70
2018-07-22T21:07:20.649Z,57.80
2018-07-22T21:09:49.761Z,57.90
2018-07-22T21:12:56.090Z,58.10
2018-07-22T21:15:25.210Z,58.10
2018-07-22T21:17:54.337Z,58.30
2018-07-22T21:20:23.195Z,58.50
2018-07-22T21:22:52.319Z,58.40
2018-07-22T21:25:21.129Z,58.70
2018-07-22T21:27:49.947Z,58.80
2018-07-22T21:30:18.753Z,58.90
2018-07-22T21:32:47.900Z,59.10
2018-07-22T21:35:17.261Z,59.40
2018-07-22T21:37:46.385Z,59.50
2018-07-22T21:40:15.684Z,59.60
2018-07-22T21:42:44.846Z,59.80
2018-07-22T21:45:14.541Z,59.70
2018-07-22T21:47:43.344Z,60.10
2018-07-22T21:50:12.482Z,60.50
2018-07-22T21:52:41.714Z,60.30
2018-07-22T21:55:10.614Z,60.70
2018-07-22T21:57:39.425Z,60.70
2018-07-22T22:00:18.854Z,61.00
2018-07-22T22:02:48.057Z,61.30
2018-07-22T22:05:17.530Z,61.50
2018-07-22T22:07:46.348Z,61.30
2018-07-22T22:10:15.474Z,61.50
2018-07-22T22:12:44.448Z,61.80
2018-07-22T22:15:31.846Z,61.90
2018-07-22T22:18:01.960Z,61.80
2018-07-22T22:20:31.186Z,62.10
2018-07-22T22:23:00.424Z,62.50
2018-07-22T22:25:29.536Z,63.00
2018-07-22T22:27:58.397Z,62.80
2018-07-22T22:30:27.870Z,62.90
2018-07-22T22:32:56.696Z,63.20
2018-07-22T22:35:25.863Z,63.20
2018-07-22T22:37:54.664Z,63.30
2018-07-22T22:40:23.460Z,63.50
2018-07-22T22:42:52.924Z,63.50
2018-07-22T22:45:22.062Z,63.70
2018-07-22T22:47:51.510Z,64.10
2018-07-22T22:50:20.312Z,64.20
2018-07-22T22:52:49.440Z,64.60
2018-07-22T22:55:18.278Z,64.60
2018-07-22T22:57:58.445Z,64.70
2018-07-22T23:00:27.572Z,64.60
2018-07-22T23:02:56.372Z,64.70
2018-07-22T23:05:25.170Z,65.00
2018-07-22T23:07:54.308Z,65.50
2018-07-22T23:10:23.094Z,65.50
2018-07-22T23:12:51.960Z,65.40
2018-07-22T23:15:21.433Z,65.50
2018-07-22T23:17:50.936Z,65.60
2018-07-22T23:20:20.706Z,65.50
2018-07-22T23:22:49.524Z,65.50
2018-07-22T23:25:18.316Z,65.30
2018-07-22T23:27:47.410Z,65.70
2018-07-22T23:30:16.215Z,66.00
2018-07-22T23:32:44.999Z,66.30
2018-07-22T23:35:13.805Z,66.30
2018-07-22T23:37:42.933Z,66.80
2018-07-22T23:40:11.753Z,66.60
2018-07-22T23:42:40.783Z,67.30
2018-07-22T23:45:09.571Z,67.80
2018-07-22T23:50:07.133Z,67.80
2018-07-22T23:52:36.101Z,67.50
2018-07-22T23:55:04.918Z,67.60
2018-07-22T23:57:34.519Z,68.00
